createdAt,value
2018-03-23T00:00:21.027Z,19.48
2018-03-23T00:02:48.551Z,20.75
2018-03-23T00:05:16.099Z,18.62
2018-03-23T00:07:43.726Z,21.50
2018-03-23T00:10:11.287Z,24.52
2018-03-23T00:12:38.810Z,20.88
2018-03-23T00:15:07.125Z,20.45
2018-03-23T00:17:34.690Z,21.85
2018-03-23T00:20:02.218Z,20.08
2018-03-23T00:22:30.528Z,19.45
2018-03-23T00:24:58.062Z,18.77
2018-03-23T00:27:25.615Z,21.15
2018-03-23T00:29:53.933Z,19.48
2018-03-23T00:32:21.478Z,22.23
2018-03-23T00:34:49.007Z,22.58
2018-03-23T00:37:17.327Z,22.00
2018-03-23T00:39:44.864Z,20.33
2018-03-23T00:42:13.183Z,22.65
2018-03-23T00:44:40.718Z,20.92
2018-03-23T00:47:08.267Z,21.42
2018-03-23T00:49:36.567Z,24.17
2018-03-23T00:52:04.115Z,22.33
2018-03-23T00:54:31.710Z,19.23
2018-03-23T00:56:59.271Z,21.75
2018-03-23T00:59:26.815Z,19.37
2018-03-23T01:01:54.337Z,22.85
2018-03-23T01:04:21.958Z,20.35
2018-03-23T01:06:49.481Z,19.75
2018-03-23T01:09:17.794Z,18.48
2018-03-23T01:11:45.327Z,17.90
2018-03-23T01:14:12.879Z,17.25
2018-03-23T01:16:41.178Z,17.42
2018-03-23T01:19:08.731Z,17.80
2018-03-23T01:21:37.020Z,17.23
2018-03-23T01:24:04.570Z,15.98
2018-03-23T01:26:32.165Z,17.02
2018-03-23T01:28:59.691Z,14.43
2018-03-23T01:31:28.006Z,15.95
2018-03-23T01:33:55.538Z,18.73
2018-03-23T01:36:23.081Z,20.17
2018-03-23T01:38:51.375Z,23.38
2018-03-23T01:41:18.926Z,22.75
2018-03-23T01:43:47.222Z,20.02
2018-03-23T01:46:14.775Z,22.40
2018-03-23T01:48:42.370Z,22.30
2018-03-23T01:51:09.918Z,22.62
2018-03-23T01:53:43.374Z,19.80
2018-03-23T01:56:11.682Z,17.33
2018-03-23T01:58:39.214Z,17.42
2018-03-23T02:01:06.754Z,16.90
2018-03-23T02:03:34.313Z,15.68
2018-03-23T02:06:01.842Z,15.50
2018-03-23T02:08:29.386Z,13.15
2018-03-23T02:10:56.982Z,15.25
2018-03-23T02:13:24.536Z,17.37
2018-03-23T02:15:52.062Z,19.27
2018-03-23T02:18:20.383Z,17.55
2018-03-23T02:20:47.906Z,17.73
2018-03-23T02:23:16.332Z,17.00
2018-03-23T02:25:43.889Z,17.37
2018-03-23T02:28:11.439Z,17.90
2018-03-23T02:30:38.966Z,19.87
2018-03-23T02:33:07.282Z,17.58
2018-03-23T02:35:34.809Z,16.90
2018-03-23T02:38:02.359Z,17.08
2018-03-23T02:40:29.985Z,16.92
2018-03-23T02:42:57.519Z,13.40
2018-03-23T02:45:25.071Z,16.62
2018-03-23T02:47:52.608Z,15.88
2018-03-23T02:50:20.922Z,13.32
2018-03-23T02:52:48.451Z,13.05
2018-03-23T02:55:16.779Z,14.52
2018-03-23T02:57:44.302Z,17.12
2018-03-23T03:00:12.613Z,16.33
2018-03-23T03:02:40.149Z,14.40
2018-03-23T03:05:07.689Z,15.00
2018-03-23T03:07:35.992Z,14.60
2018-03-23T03:10:03.533Z,14.87
2018-03-23T03:12:31.829Z,15.23
2018-03-23T03:14:59.430Z,16.23
2018-03-23T03:17:26.957Z,15.02
2018-03-23T03:19:54.501Z,15.00
2018-03-23T03:22:22.799Z,12.95
2018-03-23T03:24:50.347Z,13.40
2018-03-23T03:27:18.667Z,13.88
2018-03-23T03:29:46.226Z,12.10
2018-03-23T03:32:13.751Z,12.00
2018-03-23T03:34:42.066Z,13.13
2018-03-23T03:37:09.620Z,13.80
2018-03-23T03:39:37.141Z,8.95
2018-03-23T03:42:05.453Z,11.48
2018-03-23T03:44:32.975Z,10.70
2018-03-23T03:47:00.596Z,15.15
2018-03-23T03:49:28.124Z,16.02
2018-03-23T03:51:56.438Z,12.73
2018-03-23T03:54:23.967Z,12.57
2018-03-23T03:56:52.286Z,12.60
2018-03-23T03:59:19.814Z,12.25
2018-03-23T04:01:47.362Z,11.93
2018-03-23T04:04:15.654Z,13.10
2018-03-23T04:06:43.969Z,14.90
2018-03-23T04:09:11.526Z,16.12
2018-03-23T04:11:39.095Z,13.50
2018-03-23T04:14:06.622Z,18.10
2018-03-23T04:16:34.933Z,18.37
2018-03-23T04:19:02.494Z,17.52
2018-03-23T04:21:30.051Z,16.42
2018-03-23T04:23:57.585Z,14.18
2018-03-23T04:26:25.899Z,13.50
2018-03-23T04:28:53.538Z,16.70
2018-03-23T04:31:21.142Z,16.40
2018-03-23T04:33:48.702Z,13.25
2018-03-23T04:36:16.230Z,13.90
2018-03-23T04:38:43.778Z,13.43
2018-03-23T04:41:12.075Z,15.10
2018-03-23T04:43:39.655Z,18.98
2018-03-23T04:46:07.191Z,14.95
2018-03-23T04:48:34.738Z,15.60
2018-03-23T04:51:03.026Z,15.45
2018-03-23T04:53:30.573Z,12.23
2018-03-23T04:55:58.869Z,13.93
2018-03-23T04:58:27.186Z,11.05
2018-03-23T05:00:54.716Z,10.50
2018-03-23T05:03:22.242Z,11.70
2018-03-23T05:05:49.782Z,13.35
2018-03-23T05:08:17.314Z,16.75
2018-03-23T05:10:44.863Z,16.02
2018-03-23T05:13:12.390Z,14.82
2018-03-23T05:15:40.014Z,15.93
2018-03-23T05:18:07.542Z,14.82
2018-03-23T05:20:35.854Z,13.18
2018-03-23T05:23:03.414Z,13.25
2018-03-23T05:25:30.957Z,12.65
2018-03-23T05:27:58.485Z,10.95
2018-03-23T05:30:26.034Z,14.38
2018-03-23T05:32:53.567Z,14.10
2018-03-23T05:35:21.133Z,17.80
2018-03-23T05:37:48.653Z,18.25
2018-03-23T05:40:16.179Z,14.25
2018-03-23T05:42:43.727Z,13.18
2018-03-23T05:45:11.251Z,12.37
2018-03-23T05:47:38.799Z,11.63
2018-03-23T05:50:06.334Z,10.27
2018-03-23T05:52:34.798Z,16.27
2018-03-23T05:55:02.322Z,12.50
2018-03-23T05:57:29.867Z,10.32
2018-03-23T05:59:57.453Z,11.20
2018-03-23T06:02:24.970Z,9.90
2018-03-23T06:04:53.257Z,9.02
2018-03-23T06:07:21.566Z,13.10
2018-03-23T06:09:49.090Z,8.48
2018-03-23T06:12:17.404Z,9.27
2018-03-23T06:14:44.926Z,10.05
2018-03-23T06:17:13.238Z,11.35
2018-03-23T06:19:40.762Z,12.15
2018-03-23T06:22:08.310Z,12.37
2018-03-23T06:24:35.838Z,14.30
2018-03-23T06:27:03.367Z,13.15
2018-03-23T06:29:30.926Z,12.98
2018-03-23T06:31:59.218Z,13.05
2018-03-23T06:34:26.762Z,15.07
2018-03-23T06:36:55.055Z,14.77
2018-03-23T06:39:22.597Z,17.52
2018-03-23T06:41:50.893Z,16.95
2018-03-23T06:44:18.434Z,16.62
2018-03-23T06:46:46.725Z,16.10
2018-03-23T06:49:16.365Z,16.35
2018-03-23T06:51:44.134Z,16.58
2018-03-23T06:54:11.678Z,15.85
2018-03-23T06:56:39.214Z,15.30
2018-03-23T06:59:07.534Z,16.83
2018-03-23T07:01:35.062Z,16.23
2018-03-23T07:04:03.383Z,17.75
2018-03-23T07:06:30.911Z,14.90
2018-03-23T07:08:58.453Z,16.98
2018-03-23T07:11:26.757Z,15.93
2018-03-23T07:13:54.313Z,17.02
2018-03-23T07:16:21.912Z,14.32
2018-03-23T07:18:49.458Z,14.90
2018-03-23T07:21:17.008Z,15.70
2018-03-23T07:23:44.534Z,14.75
2018-03-23T07:26:12.845Z,13.88
2018-03-23T07:28:40.382Z,18.20
2018-03-23T07:31:08.707Z,18.40
2018-03-23T07:33:36.238Z,14.65
2018-03-23T07:36:04.552Z,15.37
2018-03-23T07:38:32.085Z,16.87
2018-03-23T07:40:59.634Z,16.25
2018-03-23T07:43:27.935Z,17.45
2018-03-23T07:45:55.486Z,17.83
2018-03-23T07:48:23.018Z,16.40
2018-03-23T07:50:50.573Z,15.73
2018-03-23T07:53:18.102Z,16.27
2018-03-23T07:55:45.637Z,15.43
2018-03-23T07:58:13.182Z,17.73
2018-03-23T08:00:41.477Z,16.08
2018-03-23T08:03:09.021Z,15.47
2018-03-23T08:05:36.545Z,14.90
2018-03-23T08:08:04.870Z,16.92
2018-03-23T08:10:33.157Z,18.20
2018-03-23T08:13:00.713Z,16.93
2018-03-23T08:15:28.251Z,17.60
2018-03-23T08:17:56.570Z,16.42
2018-03-23T08:20:24.090Z,17.87
2018-03-23T08:22:51.646Z,18.33
2018-03-23T08:25:19.169Z,17.10
2018-03-23T08:27:46.705Z,18.17
2018-03-23T08:30:14.998Z,19.30
2018-03-23T08:32:42.545Z,19.40
2018-03-23T08:35:10.830Z,19.83
2018-03-23T08:37:38.356Z,22.80
2018-03-23T08:40:06.659Z,18.80
2018-03-23T08:42:34.951Z,18.50
2018-03-23T08:45:02.498Z,16.60
2018-03-23T08:47:30.786Z,21.83
2018-03-23T08:49:58.375Z,18.27
2018-03-23T08:52:25.904Z,17.00
2018-03-23T08:54:53.448Z,20.07
2018-03-23T08:57:21.739Z,20.67
2018-03-23T08:59:50.049Z,21.20
2018-03-23T09:02:17.581Z,19.87
2018-03-23T09:04:45.145Z,18.77
2018-03-23T09:07:13.431Z,19.57
2018-03-23T09:09:41.739Z,21.17
2018-03-23T09:12:09.266Z,17.67
2018-03-23T09:14:37.802Z,19.50
2018-03-23T09:17:05.409Z,18.47
2018-03-23T09:19:33.699Z,16.50
2018-03-23T09:22:01.249Z,22.33
2018-03-23T09:24:29.538Z,18.90
2018-03-23T09:26:57.843Z,18.03
2018-03-23T09:29:25.380Z,16.57
2018-03-23T09:31:53.692Z,19.80
2018-03-23T09:34:21.209Z,17.33
2018-03-23T09:36:49.522Z,17.90
2018-03-23T09:39:17.093Z,17.83
2018-03-23T09:41:44.643Z,17.07
2018-03-23T09:44:12.171Z,16.73
2018-03-23T09:46:40.494Z,15.83
2018-03-23T09:49:08.019Z,15.03
2018-03-23T09:51:36.338Z,17.60
2018-03-23T09:54:03.864Z,16.50
2018-03-23T09:56:32.150Z,18.10
2018-03-23T09:58:59.697Z,17.63
2018-03-23T10:01:29.009Z,19.90
2018-03-23T10:03:57.442Z,16.97
2018-03-23T10:06:24.853Z,18.17
2018-03-23T10:08:53.166Z,17.20
2018-03-23T10:11:20.689Z,18.00
2018-03-23T10:13:49.003Z,16.60
2018-03-23T10:16:16.522Z,19.17
2018-03-23T10:18:44.840Z,17.67
2018-03-23T10:21:12.365Z,16.80
2018-03-23T10:23:40.675Z,16.80
2018-03-23T10:26:08.202Z,16.97
2018-03-23T10:28:37.353Z,16.30
2018-03-23T10:31:04.871Z,16.60
2018-03-23T10:33:32.414Z,16.70
2018-03-23T10:36:00.710Z,16.60
2018-03-23T10:38:29.018Z,17.57
2018-03-23T10:40:56.537Z,15.73
2018-03-23T10:43:24.843Z,16.73
2018-03-23T10:45:52.371Z,16.40
2018-03-23T10:48:19.915Z,15.40
2018-03-23T10:50:47.435Z,24.97
2018-03-23T10:53:14.979Z,14.63
2018-03-23T10:55:42.503Z,16.83
2018-03-23T10:58:10.047Z,14.73
2018-03-23T11:00:43.319Z,14.10
2018-03-23T11:03:10.867Z,15.30
2018-03-23T11:05:38.396Z,16.53
2018-03-23T11:08:06.733Z,15.63
2018-03-23T11:10:34.263Z,15.20
2018-03-23T11:13:02.559Z,13.60
2018-03-23T11:15:30.099Z,13.60
2018-03-23T11:17:58.401Z,14.20
2018-03-23T11:20:25.944Z,14.80
2018-03-23T11:22:54.230Z,14.70
2018-03-23T11:25:21.783Z,13.33
2018-03-23T11:27:49.311Z,15.07
2018-03-23T11:30:16.932Z,14.90
2018-03-23T11:32:44.398Z,14.50
2018-03-23T11:35:11.940Z,14.37
2018-03-23T11:37:39.472Z,12.27
2018-03-23T11:40:07.778Z,13.33
2018-03-23T11:42:35.358Z,13.67
2018-03-23T11:45:02.903Z,12.53
2018-03-23T11:47:30.435Z,14.30
2018-03-23T11:49:58.771Z,10.90
2018-03-23T11:52:26.306Z,14.57
2018-03-23T11:54:53.842Z,13.00
2018-03-23T11:57:22.129Z,12.20
2018-03-23T11:59:50.439Z,11.93
2018-03-23T12:02:17.971Z,13.83
2018-03-23T12:04:46.299Z,12.90
2018-03-23T12:07:13.827Z,13.33
2018-03-23T12:09:41.354Z,12.07
2018-03-23T12:12:08.900Z,12.13
2018-03-23T12:14:36.425Z,11.40
2018-03-23T12:17:03.971Z,11.87
2018-03-23T12:19:31.504Z,11.70
2018-03-23T12:21:59.808Z,9.77
2018-03-23T12:24:27.331Z,11.17
2018-03-23T12:26:54.875Z,8.80
2018-03-23T12:29:22.397Z,10.33
2018-03-23T12:31:49.948Z,10.93
2018-03-23T12:34:18.234Z,12.30
2018-03-23T12:36:45.773Z,12.03
2018-03-23T12:39:14.066Z,12.47
2018-03-23T12:41:41.609Z,9.13
2018-03-23T12:44:09.899Z,8.20
2018-03-23T12:46:38.186Z,10.50
2018-03-23T12:49:05.726Z,7.80
2018-03-23T12:51:33.243Z,9.90
2018-03-23T12:54:00.786Z,11.10
2018-03-23T12:56:28.305Z,9.47
2018-03-23T12:58:55.857Z,9.70
2018-03-23T13:01:23.381Z,12.67
2018-03-23T13:03:50.938Z,9.37
2018-03-23T13:06:18.467Z,9.70
2018-03-23T13:08:46.006Z,7.60
2018-03-23T13:11:14.304Z,8.07
2018-03-23T13:13:42.612Z,8.57
2018-03-23T13:16:10.134Z,7.37
2018-03-23T13:18:38.451Z,9.33
2018-03-23T13:21:05.969Z,6.80
2018-03-23T13:23:34.259Z,7.20
2018-03-23T13:26:02.561Z,6.93
2018-03-23T13:28:30.090Z,10.80
2018-03-23T13:30:58.395Z,6.87
2018-03-23T13:33:25.915Z,6.00
2018-03-23T13:35:53.453Z,7.83
2018-03-23T13:38:20.978Z,8.23
2018-03-23T13:40:48.519Z,6.83
2018-03-23T13:43:16.806Z,6.60
2018-03-23T13:45:45.111Z,10.93
2018-03-23T13:48:12.630Z,11.67
2018-03-23T13:50:40.915Z,8.77
2018-03-23T13:53:09.210Z,5.80
2018-03-23T13:55:36.721Z,6.20
2018-03-23T13:58:04.257Z,6.43
2018-03-23T14:00:37.590Z,6.27
2018-03-23T14:03:05.133Z,7.80
2018-03-23T14:05:32.662Z,27.77
2018-03-23T14:08:00.207Z,16.10
2018-03-23T14:10:27.735Z,8.50
2018-03-23T14:12:56.048Z,8.37
2018-03-23T14:15:23.566Z,6.97
2018-03-23T14:17:51.106Z,6.73
2018-03-23T14:20:18.637Z,10.63
2018-03-23T14:22:46.183Z,6.83
2018-03-23T14:25:14.466Z,8.90
2018-03-23T14:27:42.766Z,7.37
2018-03-23T14:30:10.303Z,7.60
2018-03-23T14:32:38.587Z,9.10
2018-03-23T14:35:06.126Z,7.27
2018-03-23T14:37:34.410Z,5.57
2018-03-23T14:40:02.711Z,5.10
2018-03-23T14:42:30.225Z,6.13
2018-03-23T14:44:57.760Z,5.37
2018-03-23T14:47:25.279Z,7.10
2018-03-23T14:49:53.582Z,4.17
2018-03-23T14:52:21.154Z,4.90
2018-03-23T14:54:49.413Z,4.10
2018-03-23T14:57:16.929Z,4.60
2018-03-23T14:59:44.466Z,4.13
2018-03-23T15:02:11.984Z,5.07
2018-03-23T15:04:39.532Z,5.10
2018-03-23T15:07:07.809Z,5.40
2018-03-23T15:09:35.368Z,5.80
2018-03-23T15:12:02.886Z,5.73
2018-03-23T15:14:30.416Z,4.90
2018-03-23T15:16:57.954Z,4.70
2018-03-23T15:19:25.463Z,4.83
2018-03-23T15:21:53.002Z,4.43
2018-03-23T15:24:20.521Z,4.50
2018-03-23T15:26:48.059Z,3.70
2018-03-23T15:29:15.582Z,3.30
2018-03-23T15:31:43.887Z,4.10
2018-03-23T15:34:11.407Z,3.53
2018-03-23T15:36:39.727Z,4.17
2018-03-23T15:39:07.257Z,4.27
2018-03-23T15:41:35.559Z,3.80
2018-03-23T15:44:03.089Z,3.80
2018-03-23T15:46:31.414Z,3.53
2018-03-23T15:48:58.928Z,4.70
2018-03-23T15:51:26.467Z,2.53
2018-03-23T15:53:53.995Z,4.70
2018-03-23T15:56:21.541Z,3.60
2018-03-23T15:58:49.825Z,4.73
2018-03-23T16:01:18.151Z,3.30
2018-03-23T16:03:45.675Z,3.00
2018-03-23T16:06:13.201Z,4.10
2018-03-23T16:08:40.745Z,4.80
2018-03-23T16:11:09.778Z,4.50
2018-03-23T16:13:38.090Z,4.67
2018-03-23T16:16:05.602Z,5.50
2018-03-23T16:18:33.162Z,5.03
2018-03-23T16:21:00.687Z,5.10
2018-03-23T16:23:28.231Z,4.23
2018-03-23T16:25:55.751Z,4.23
2018-03-23T16:28:23.294Z,4.90
2018-03-23T16:30:50.809Z,4.50
2018-03-23T16:33:18.342Z,4.30
2018-03-23T16:35:46.626Z,5.03
2018-03-23T16:38:14.937Z,4.53
2018-03-23T16:40:42.454Z,4.30
2018-03-23T16:43:09.991Z,3.60
2018-03-23T16:45:37.514Z,4.33
2018-03-23T16:48:05.071Z,3.90
2018-03-23T16:50:32.595Z,3.30
2018-03-23T16:53:00.118Z,4.00
2018-03-23T16:55:27.657Z,4.67
2018-03-23T16:57:55.178Z,4.10
2018-03-23T17:00:22.710Z,4.40
2018-03-23T17:02:50.222Z,4.03
2018-03-23T17:05:18.522Z,3.80
2018-03-23T17:07:46.097Z,3.80
2018-03-23T17:10:13.638Z,3.93
2018-03-23T17:12:41.919Z,5.30
2018-03-23T17:15:09.505Z,4.57
2018-03-23T17:17:37.027Z,3.83
2018-03-23T17:20:05.335Z,3.40
2018-03-23T17:22:32.861Z,3.40
2018-03-23T17:25:00.399Z,3.67
2018-03-23T17:27:27.927Z,4.40
2018-03-23T17:29:55.457Z,4.70
2018-03-23T17:32:23.744Z,3.33
2018-03-23T17:34:52.045Z,3.17
2018-03-23T17:37:19.566Z,3.23
2018-03-23T17:39:47.098Z,4.27
2018-03-23T17:42:14.614Z,3.00
2018-03-23T17:44:42.145Z,3.40
2018-03-23T17:47:10.438Z,3.97
2018-03-23T17:49:38.742Z,3.80
2018-03-23T17:52:06.311Z,5.60
2018-03-23T17:54:33.854Z,4.13
2018-03-23T17:57:01.434Z,4.80
2018-03-23T17:59:28.973Z,3.80
2018-03-23T18:01:56.491Z,5.10
2018-03-23T18:04:24.007Z,4.13
2018-03-23T18:06:51.577Z,4.47
2018-03-23T18:09:19.139Z,4.70
2018-03-23T18:11:46.671Z,3.60
2018-03-23T18:14:14.201Z,3.40
2018-03-23T18:16:42.509Z,4.20
2018-03-23T18:19:10.026Z,5.00
2018-03-23T18:21:37.561Z,4.93
2018-03-23T18:24:05.098Z,6.10
2018-03-23T18:26:32.678Z,5.63
2018-03-23T18:29:00.206Z,5.40
2018-03-23T18:31:28.510Z,4.47
2018-03-23T18:33:56.033Z,4.00
2018-03-23T18:36:24.360Z,3.90
2018-03-23T18:38:51.877Z,3.73
2018-03-23T18:41:20.162Z,4.60
2018-03-23T18:43:48.463Z,5.00
2018-03-23T18:46:15.977Z,5.30
2018-03-23T18:48:43.510Z,4.63
2018-03-23T18:51:11.030Z,6.50
2018-03-23T18:53:38.570Z,4.97
2018-03-23T18:56:06.855Z,6.00
2018-03-23T18:58:35.164Z,5.50
2018-03-23T19:01:02.737Z,5.13
2018-03-23T19:03:31.017Z,4.43
2018-03-23T19:05:58.544Z,3.70
2018-03-23T19:08:26.100Z,4.25
2018-03-23T19:10:54.387Z,5.13
2018-03-23T19:13:22.694Z,4.20
2018-03-23T19:15:50.270Z,4.17
2018-03-23T19:18:17.794Z,5.95
2018-03-23T19:20:45.311Z,5.30
2018-03-23T19:23:12.852Z,4.83
2018-03-23T19:25:40.382Z,5.50
2018-03-23T19:28:07.928Z,6.30
2018-03-23T19:30:36.216Z,5.50
2018-03-23T19:33:04.499Z,5.37
2018-03-23T19:35:32.034Z,4.40
2018-03-23T19:38:00.318Z,5.23
2018-03-23T19:40:28.621Z,5.47
2018-03-23T19:42:56.140Z,6.60
2018-03-23T19:45:23.691Z,5.67
2018-03-23T19:47:51.212Z,5.60
2018-03-23T19:50:18.762Z,6.80
2018-03-23T19:52:46.291Z,5.75
2018-03-23T19:55:14.607Z,6.90
2018-03-23T19:57:42.128Z,5.93
2018-03-23T20:00:09.670Z,6.97
2018-03-23T20:02:37.201Z,5.87
2018-03-23T20:05:04.747Z,5.63
2018-03-23T20:07:32.277Z,6.20
2018-03-23T20:10:01.322Z,5.90
2018-03-23T20:12:28.894Z,5.37
2018-03-23T20:14:56.449Z,7.07
2018-03-23T20:17:29.749Z,6.07
2018-03-23T20:19:57.319Z,7.00
2018-03-23T20:22:24.842Z,7.47
2018-03-23T20:24:52.401Z,7.70
2018-03-23T20:27:25.666Z,8.43
2018-03-23T20:29:53.219Z,7.20
2018-03-23T20:32:26.402Z,6.95
2018-03-23T20:34:53.965Z,6.37
2018-03-23T20:37:21.491Z,5.85
2018-03-23T20:39:49.019Z,5.97
2018-03-23T20:42:17.340Z,8.35
2018-03-23T20:44:44.858Z,7.00
2018-03-23T20:47:13.190Z,7.97
2018-03-23T20:49:40.719Z,6.53
2018-03-23T20:52:08.266Z,7.97
2018-03-23T20:54:36.554Z,6.03
2018-03-23T20:57:04.106Z,7.10
2018-03-23T20:59:32.394Z,9.17
2018-03-23T21:01:59.938Z,6.47
2018-03-23T21:04:28.252Z,7.50
2018-03-23T21:06:55.783Z,7.20
2018-03-23T21:09:24.079Z,6.60
2018-03-23T21:11:51.626Z,7.28
2018-03-23T21:14:19.909Z,6.73
2018-03-23T21:16:47.503Z,9.65
2018-03-23T21:19:15.027Z,9.35
2018-03-23T21:21:43.339Z,8.85
2018-03-23T21:24:10.862Z,10.00
2018-03-23T21:26:39.201Z,9.18
2018-03-23T21:29:06.746Z,8.82
2018-03-23T21:31:34.271Z,7.90
2018-03-23T21:34:02.583Z,6.87
2018-03-23T21:36:30.114Z,6.55
2018-03-23T21:38:57.678Z,10.70
2018-03-23T21:41:25.201Z,8.90
2018-03-23T21:43:52.742Z,9.68
2018-03-23T21:46:20.267Z,8.88
2018-03-23T21:48:47.810Z,7.57
2018-03-23T21:51:16.098Z,9.23
2018-03-23T21:53:43.649Z,10.05
2018-03-23T21:56:11.941Z,13.50
2018-03-23T21:58:39.479Z,13.90
2018-03-23T22:01:07.780Z,11.75
2018-03-23T22:03:35.329Z,11.07
2018-03-23T22:06:03.627Z,8.93
2018-03-23T22:08:31.200Z,7.82
2018-03-23T22:10:58.726Z,11.20
2018-03-23T22:13:27.023Z,7.90
2018-03-23T22:15:54.573Z,10.85
2018-03-23T22:18:22.865Z,8.80
2018-03-23T22:20:50.478Z,9.88
2018-03-23T22:23:18.010Z,10.32
2018-03-23T22:25:45.562Z,13.88
2018-03-23T22:28:13.139Z,13.30
2018-03-23T22:30:40.694Z,12.00
2018-03-23T22:33:08.227Z,17.67
2018-03-23T22:35:36.547Z,17.25
2018-03-23T22:38:04.074Z,17.37
2018-03-23T22:40:31.626Z,15.32
2018-03-23T22:42:59.929Z,15.52
2018-03-23T22:45:27.478Z,16.90
2018-03-23T22:47:55.007Z,12.95
2018-03-23T22:50:22.570Z,15.50
2018-03-23T22:52:50.094Z,15.80
2018-03-23T22:55:17.623Z,16.60
2018-03-23T22:57:45.176Z,16.02
2018-03-23T23:00:13.470Z,16.60
2018-03-23T23:02:41.022Z,14.13
2018-03-23T23:05:08.554Z,14.35
2018-03-23T23:07:36.103Z,13.50
2018-03-23T23:10:03.632Z,11.88
2018-03-23T23:12:31.176Z,12.60
2018-03-23T23:14:58.705Z,13.55
2018-03-23T23:17:26.247Z,13.75
2018-03-23T23:19:53.776Z,15.15
2018-03-23T23:22:21.328Z,13.93
2018-03-23T23:24:48.850Z,14.52
2018-03-23T23:27:16.395Z,16.00
2018-03-23T23:29:43.917Z,13.23
2018-03-23T23:32:11.470Z,14.20
2018-03-23T23:34:39.001Z,13.82
2018-03-23T23:37:07.323Z,15.00
2018-03-23T23:39:34.848Z,17.75
2018-03-23T23:42:03.146Z,14.40
2018-03-23T23:44:30.694Z,15.05
2018-03-23T23:46:58.990Z,12.35
2018-03-23T23:49:26.538Z,13.85
2018-03-23T23:51:54.138Z,17.17
2018-03-23T23:54:21.682Z,16.62
2018-03-23T23:56:49.223Z,13.05
2018-03-23T23:59:17.554Z,15.15
